sensor_id;sensor_type;location;lat;lon;timestamp;pressure;altitude;pressure_sealevel;temperature;humidity
47240;BME280;32978;53.586;10.052;2022-07-04T00:00:17;101675.81;;;17.14;100.00
47240;BME280;32978;53.586;10.052;2022-07-04T00:05:14;101674.22;;;17.13;100.00
47240;BME280;32978;53.586;10.052;2022-07-04T00:10:13;101676.63;;;17.14;100.00
47240;BME280;32978;53.586;10.052;2022-07-04T00:15:11;101669.34;;;17.10;100.00
47240;BME280;32978;53.586;10.052;2022-07-04T00:20:09;101672.78;;;17.07;100.00
47240;BME280;32978;53.586;10.052;2022-07-04T00:25:06;101672.47;;;17.08;100.00
47240;BME280;32978;53.586;10.052;2022-07-04T00:30:04;101665.84;;;17.00;100.00
47240;BME280;32978;53.586;10.052;2022-07-04T00:35:01;101665.84;;;17.00;100.00
47240;BME280;32978;53.586;10.052;2022-07-04T00:39:57;101663.31;;;16.95;100.00
47240;BME280;32978;53.586;10.052;2022-07-04T00:44:54;101662.75;;;17.02;100.00
47240;BME280;32978;53.586;10.052;2022-07-04T00:49:50;101671.81;;;16.90;100.00
47240;BME280;32978;53.586;10.052;2022-07-04T00:54:47;101675.03;;;16.92;100.00
47240;BME280;32978;53.586;10.052;2022-07-04T00:59:45;101670.31;;;16.93;100.00
47240;BME280;32978;53.586;10.052;2022-07-04T01:04:41;101672.47;;;16.87;100.00
47240;BME280;32978;53.586;10.052;2022-07-04T01:09:39;101675.44;;;16.82;100.00
47240;BME280;32978;53.586;10.052;2022-07-04T01:14:38;101675.00;;;16.71;100.00
47240;BME280;32978;53.586;10.052;2022-07-04T01:19:35;101682.81;;;16.69;100.00
47240;BME280;32978;53.586;10.052;2022-07-04T01:24:31;101685.91;;;16.68;100.00
47240;BME280;32978;53.586;10.052;2022-07-04T01:29:28;101684.94;;;16.63;100.00
47240;BME280;32978;53.586;10.052;2022-07-04T01:34:24;101686.59;;;16.65;100.00
47240;BME280;32978;53.586;10.052;2022-07-04T01:39:21;101689.94;;;16.49;100.00
47240;BME280;32978;53.586;10.052;2022-07-04T01:44:17;101688.31;;;16.48;100.00
47240;BME280;32978;53.586;10.052;2022-07-04T01:49:14;101685.75;;;16.43;100.00
47240;BME280;32978;53.586;10.052;2022-07-04T01:54:10;101688.13;;;16.24;100.00
47240;BME280;32978;53.586;10.052;2022-07-04T01:59:08;101691.66;;;16.33;100.00
47240;BME280;32978;53.586;10.052;2022-07-04T02:04:05;101692.59;;;16.37;100.00
47240;BME280;32978;53.586;10.052;2022-07-04T02:09:03;101697.84;;;16.30;100.00
47240;BME280;32978;53.586;10.052;2022-07-04T02:14:11;101698.81;;;16.34;100.00
47240;BME280;32978;53.586;10.052;2022-07-04T02:19:08;101698.81;;;16.34;100.00
47240;BME280;32978;53.586;10.052;2022-07-04T02:24:04;101692.31;;;16.30;100.00
47240;BME280;32978;53.586;10.052;2022-07-04T02:29:01;101704.31;;;16.34;100.00
47240;BME280;32978;53.586;10.052;2022-07-04T02:33:57;101699.94;;;16.33;100.00
47240;BME280;32978;53.586;10.052;2022-07-04T02:38:54;101696.22;;;16.29;100.00
47240;BME280;32978;53.586;10.052;2022-07-04T02:43:51;101703.59;;;16.16;100.00
47240;BME280;32978;53.586;10.052;2022-07-04T02:48:47;101701.06;;;16.02;100.00
47240;BME280;32978;53.586;10.052;2022-07-04T02:53:44;101705.00;;;15.92;100.00
47240;BME280;32978;53.586;10.052;2022-07-04T02:58:40;101704.63;;;15.94;100.00
47240;BME280;32978;53.586;10.052;2022-07-04T03:03:37;101712.91;;;15.94;100.00
47240;BME280;32978;53.586;10.052;2022-07-04T03:08:34;101714.06;;;15.93;100.00
47240;BME280;32978;53.586;10.052;2022-07-04T03:13:32;101715.84;;;15.89;100.00
47240;BME280;32978;53.586;10.052;2022-07-04T03:18:28;101709.53;;;15.88;100.00
47240;BME280;32978;53.586;10.052;2022-07-04T03:23:25;101714.75;;;15.90;100.00
47240;BME280;32978;53.586;10.052;2022-07-04T03:28:21;101722.84;;;15.86;100.00
47240;BME280;32978;53.586;10.052;2022-07-04T03:33:18;101715.19;;;15.92;100.00
47240;BME280;32978;53.586;10.052;2022-07-04T03:38:15;101728.53;;;15.90;100.00
47240;BME280;32978;53.586;10.052;2022-07-04T03:43:12;101733.84;;;15.95;100.00
47240;BME280;32978;53.586;10.052;2022-07-04T03:48:08;101744.44;;;15.84;100.00
47240;BME280;32978;53.586;10.052;2022-07-04T03:53:05;101748.16;;;15.80;100.00
47240;BME280;32978;53.586;10.052;2022-07-04T03:58:02;101745.59;;;15.74;100.00
47240;BME280;32978;53.586;10.052;2022-07-04T04:03:00;101747.50;;;15.83;100.00
47240;BME280;32978;53.586;10.052;2022-07-04T04:07:58;101754.97;;;15.82;100.00
47240;BME280;32978;53.586;10.052;2022-07-04T04:12:56;101757.25;;;15.80;100.00
47240;BME280;32978;53.586;10.052;2022-07-04T04:17:53;101757.41;;;15.84;100.00
47240;BME280;32978;53.586;10.052;2022-07-04T04:22:49;101761.63;;;15.90;100.00
47240;BME280;32978;53.586;10.052;2022-07-04T04:27:46;101766.59;;;15.96;100.00
47240;BME280;32978;53.586;10.052;2022-07-04T04:32:43;101770.34;;;15.92;100.00
47240;BME280;32978;53.586;10.052;2022-07-04T04:37:39;101769.84;;;15.98;100.00
47240;BME280;32978;53.586;10.052;2022-07-04T04:42:36;101772.97;;;15.97;100.00
47240;BME280;32978;53.586;10.052;2022-07-04T04:47:34;101784.63;;;15.94;100.00
47240;BME280;32978;53.586;10.052;2022-07-04T04:52:30;101794.84;;;15.93;100.00
47240;BME280;32978;53.586;10.052;2022-07-04T04:57:27;101779.59;;;15.87;100.00
47240;BME280;32978;53.586;10.052;2022-07-04T05:02:23;101787.88;;;15.96;100.00
47240;BME280;32978;53.586;10.052;2022-07-04T05:07:20;101786.56;;;16.02;100.00
47240;BME280;32978;53.586;10.052;2022-07-04T05:12:16;101797.59;;;16.02;100.00
47240;BME280;32978;53.586;10.052;2022-07-04T05:17:13;101802.63;;;16.09;100.00
47240;BME280;32978;53.586;10.052;2022-07-04T05:22:10;101804.22;;;16.10;100.00
47240;BME280;32978;53.586;10.052;2022-07-04T05:27:07;101820.63;;;16.06;100.00
47240;BME280;32978;53.586;10.052;2022-07-04T05:32:05;101818.66;;;16.15;100.00
47240;BME280;32978;53.586;10.052;2022-07-04T05:37:03;101812.84;;;16.08;100.00
47240;BME280;32978;53.586;10.052;2022-07-04T05:42:00;101801.16;;;16.11;100.00
47240;BME280;32978;53.586;10.052;2022-07-04T05:46:56;101798.19;;;16.16;100.00
47240;BME280;32978;53.586;10.052;2022-07-04T05:51:53;101797.22;;;16.12;100.00
47240;BME280;32978;53.586;10.052;2022-07-04T05:56:49;101791.41;;;16.14;100.00
47240;BME280;32978;53.586;10.052;2022-07-04T06:01:46;101806.09;;;16.27;100.00
47240;BME280;32978;53.586;10.052;2022-07-04T06:06:43;101799.28;;;16.33;100.00
47240;BME280;32978;53.586;10.052;2022-07-04T06:11:39;101803.28;;;16.44;100.00
47240;BME280;32978;53.586;10.052;2022-07-04T06:16:36;101807.81;;;16.49;100.00
47240;BME280;32978;53.586;10.052;2022-07-04T06:21:33;101809.59;;;16.53;100.00
47240;BME280;32978;53.586;10.052;2022-07-04T06:26:29;101796.34;;;16.68;100.00
47240;BME280;32978;53.586;10.052;2022-07-04T06:31:26;101796.50;;;16.71;100.00
47240;BME280;32978;53.586;10.052;2022-07-04T06:36:23;101785.91;;;16.82;100.00
47240;BME280;32978;53.586;10.052;2022-07-04T06:41:19;101793.63;;;16.97;100.00
47240;BME280;32978;53.586;10.052;2022-07-04T06:46:16;101804.25;;;17.08;100.00
47240;BME280;32978;53.586;10.052;2022-07-04T06:51:12;101797.41;;;17.14;100.00
47240;BME280;32978;53.586;10.052;2022-07-04T06:56:10;101800.75;;;17.19;100.00
47240;BME280;32978;53.586;10.052;2022-07-04T07:01:06;101803.41;;;17.16;100.00
47240;BME280;32978;53.586;10.052;2022-07-04T07:06:03;101801.44;;;17.37;100.00
47240;BME280;32978;53.586;10.052;2022-07-04T07:11:00;67994.34;;;-146.18;100.00
47240;BME280;32978;53.586;10.052;2022-07-04T07:16:11;67994.34;;;-146.18;100.00
47240;BME280;32978;53.586;10.052;2022-07-04T07:21:08;67994.34;;;-146.18;100.00
47240;BME280;32978;53.586;10.052;2022-07-04T07:26:05;67994.34;;;-146.18;100.00
47240;BME280;32978;53.586;10.052;2022-07-04T07:31:02;67994.34;;;-146.18;100.00
47240;BME280;32978;53.586;10.052;2022-07-04T07:35:58;67994.34;;;-146.18;100.00
47240;BME280;32978;53.586;10.052;2022-07-04T07:40:56;67994.34;;;-146.18;100.00
47240;BME280;32978;53.586;10.052;2022-07-04T07:45:53;67994.34;;;-146.18;100.00
47240;BME280;32978;53.586;10.052;2022-07-04T07:50:49;67994.34;;;-146.18;100.00
47240;BME280;32978;53.586;10.052;2022-07-04T07:55:46;67994.34;;;-146.18;100.00
47240;BME280;32978;53.586;10.052;2022-07-04T08:00:43;67994.34;;;-146.18;100.00
47240;BME280;32978;53.586;10.052;2022-07-04T08:05:54;67994.34;;;-146.18;100.00
47240;BME280;32978;53.586;10.052;2022-07-04T08:10:51;67994.34;;;-146.18;100.00
47240;BME280;32978;53.586;10.052;2022-07-04T08:15:47;67994.34;;;-146.18;100.00
